Anchorage, Alaska
Current Conditions -  °F | °C
As of 12:53 AM on Tuesday 21 Oct 2014 (Local Time) from PANC Reporting Station
Light Rain Light Rain  
Wind Chill:   Ceiling: 9500
Heat Index:   Visibility: 10mi
Dew Point: -1°   Wind: 0mph
Humidity: 89%   Direction: NA
Pressure: 29.24"   Gusts: NA
Location:  61.16°N, 150.01°W
Report Text: PANC 210853Z 00000KT 10SM -RA FEW055 SCT070 BKN095 01/M01 A2924 RMK AO2 SLP905 PCPN VLGT P0000 60000 T00111006 400330006 53022
Loading
Personal Weather Stations






























Interactive Weather Map
Tropical Storm Tracking
New forecast layout! Learn more

10-Day Weather Forecast

Advertisements
Track Severe Weather on mobile